Webcams

Webcam1&2         Webcam1 (Zeitraffer 2 Std.)        Webcam2 (Zeitraffer 2 Std.)

Webcam2 - Zeitraffer (die letzten zwei Stunden, Intervall: 10min)
cam2--20170722_062958M
cam2--20170722_063959M
cam2--20170722_064959M
cam2--20170722_065959M
cam2--20170722_070958M
cam2--20170722_071959M
cam2--20170722_072959M
cam2--20170722_073959M
cam2--20170722_074958M
cam2--20170722_080000M
cam2--20170722_080958M
cam2--20170722_081958M
cam2--20170722_082958M
01/13 
start stop bwd fwd

Webcam2 - Aktuell

Lokale Serverzeit 08:30 | 22.07.2017
Webcam-Lageplan

Flugwetter

[source: ADDS]
METAR
LOWL 220620Z 28005KT 9999 FEW020 20/16 Q1015 NOSIG =
TAF
TAF LOWL 220515Z 2206/2306 26007KT 9999 FEW060 BKN130 TX28/2215Z TN18/2304Z TEMPO 2209/2215 30014KT -SHRA VCTS FEW050CB BKN090 PROB30 TEMPO 2302/2306 30015KT TSRA SCT040CB BKN080 =